Time;durP1;ratioP1;P1;durP2;ratioP2;P2;SDS_P1;SDS_P2;PMS_P1;PMS_P2;Temp;Humidity;BMP_temperature;BMP_pressure;BME280_temperature;BME280_humidity;BME280_pressure;Samples;Min_cycle;Max_cycle;Signal;HPM_P1;HPM_P2
2021/09/21 00:00:51;;;;;;;;;;;16.90;33.40;;;;;;4324294;33;19985;-39
2021/09/21 00:03:18;;;;;;;;;;;16.90;33.60;;;;;;4327751;33;19978;-39
2021/09/21 00:05:44;;;;;;;;;;;16.90;33.90;;;;;;4327365;33;19963;-36
2021/09/21 00:08:10;;;;;;;;;;;16.90;33.90;;;;;;4327904;33;19978;-39
2021/09/21 00:10:36;;;;;;;;;;;17.00;34.00;;;;;;4327316;33;19995;-40
2021/09/21 00:13:02;;;;;;;;;;;17.00;34.20;;;;;;4327169;33;20114;-40
2021/09/21 00:15:28;;;;;;;;;;;17.00;34.30;;;;;;4326920;33;20089;-40
2021/09/21 00:17:55;;;;;;;;;;;17.00;34.50;;;;;;4330883;32;20468;-39
2021/09/21 00:20:21;;;;;;;;;;;16.90;34.90;;;;;;4359063;32;19966;-40
2021/09/21 00:22:47;;;;;;;;;;;16.90;34.90;;;;;;4359441;32;20415;-40
2021/09/21 00:25:14;;;;;;;;;;;16.90;35.20;;;;;;4359463;32;19977;-39
2021/09/21 00:27:40;;;;;;;;;;;16.80;35.20;;;;;;4359332;32;19970;-40
2021/09/21 00:30:07;;;;;;;;;;;16.80;35.30;;;;;;4345560;32;19994;-40
2021/09/21 00:32:33;;;;;;;;;;;16.80;35.30;;;;;;4359287;32;20382;-39
2021/09/21 00:34:59;;;;;;;;;;;16.80;35.50;;;;;;4359309;32;20078;-40
2021/09/21 00:37:26;;;;;;;;;;;16.80;35.50;;;;;;4359337;32;20140;-39
2021/09/21 00:39:52;;;;;;;;;;;16.80;35.40;;;;;;4358863;32;19970;-41
2021/09/21 00:42:28;;;;;;;;;;;16.80;35.30;;;;;;4345325;32;20085;-39
2021/09/21 00:45:04;;;;;;;;;;;16.80;35.20;;;;;;4358976;32;20079;-39
2021/09/21 00:47:31;;;;;;;;;;;16.70;35.10;;;;;;4358668;32;19969;-39
2021/09/21 00:49:57;;;;;;;;;;;16.70;35.00;;;;;;4344378;32;19958;-40
2021/09/21 00:52:23;;;;;;;;;;;16.70;34.90;;;;;;4343955;32;20454;-40
2021/09/21 00:54:49;;;;;;;;;;;16.60;34.90;;;;;;4342502;33;19982;-39
2021/09/21 00:57:15;;;;;;;;;;;16.60;35.00;;;;;;4344485;32;19983;-40
2021/09/21 00:59:42;;;;;;;;;;;16.50;35.30;;;;;;4343678;32;19963;-40
2021/09/21 01:02:08;;;;;;;;;;;16.50;35.20;;;;;;4343728;32;19994;-40
2021/09/21 01:04:35;;;;;;;;;;;16.50;35.30;;;;;;4344163;32;19983;-39
2021/09/21 01:07:02;;;;;;;;;;;16.50;35.30;;;;;;4343622;32;19993;-40
2021/09/21 01:09:29;;;;;;;;;;;16.50;36.00;;;;;;4343776;32;19967;-39
2021/09/21 01:11:58;;;;;;;;;;;16.40;35.20;;;;;;4343583;32;19965;-40
2021/09/21 01:14:24;;;;;;;;;;;16.50;35.30;;;;;;4344064;32;19987;-40
2021/09/21 01:16:51;;;;;;;;;;;16.40;35.40;;;;;;4344309;32;20457;-40
2021/09/21 01:19:17;;;;;;;;;;;16.30;35.30;;;;;;4358623;32;20378;-40
2021/09/21 01:21:45;;;;;;;;;;;16.30;35.40;;;;;;4344868;32;19974;-40
2021/09/21 01:24:11;;;;;;;;;;;16.30;35.50;;;;;;4358197;32;19990;-41
2021/09/21 01:26:37;;;;;;;;;;;16.20;35.40;;;;;;4358459;32;19986;-38
2021/09/21 01:29:04;;;;;;;;;;;16.20;35.40;;;;;;4358652;32;19950;-39
2021/09/21 01:31:30;;;;;;;;;;;16.10;35.40;;;;;;4358639;32;19967;-40
2021/09/21 01:33:57;;;;;;;;;;;16.10;35.60;;;;;;4358146;32;19974;-40
2021/09/21 01:36:25;;;;;;;;;;;16.00;35.50;;;;;;4358907;32;19985;-40
2021/09/21 01:38:51;;;;;;;;;;;16.00;35.70;;;;;;4363527;32;20050;-38
2021/09/21 01:41:17;;;;;;;;;;;16.00;35.70;;;;;;4363793;32;19977;-39
2021/09/21 01:43:44;;;;;;;;;;;16.00;35.70;;;;;;4363563;32;20108;-40
2021/09/21 01:46:11;;;;;;;;;;;15.90;35.70;;;;;;4363370;32;19989;-39
2021/09/21 01:48:37;;;;;;;;;;;16.00;35.70;;;;;;4356161;32;20430;-40
2021/09/21 01:51:07;;;;;;;;;;;16.00;35.70;;;;;;4348459;33;19962;-41
2021/09/21 01:53:50;;;;;;;;;;;16.00;35.60;;;;;;4348282;32;20422;-40
2021/09/21 01:59:01;;;;;;;;;;;16.00;35.50;;;;;;4330664;33;20638;-39
2021/09/21 02:01:28;;;;;;;;;;;16.00;35.50;;;;;;4331046;33;20005;-40
2021/09/21 02:03:56;;;;;;;;;;;16.00;35.50;;;;;;4330981;33;19974;-39
2021/09/21 02:06:28;;;;;;;;;;;16.00;35.50;;;;;;4330956;33;19966;-40
2021/09/21 02:08:54;;;;;;;;;;;16.00;35.50;;;;;;4331393;33;19981;-39
2021/09/21 02:11:20;;;;;;;;;;;16.00;35.70;;;;;;4331467;33;20022;-40
2021/09/21 02:13:47;;;;;;;;;;;15.90;36.30;;;;;;4330675;33;20446;-40
2021/09/21 02:16:13;;;;;;;;;;;15.90;35.70;;;;;;4330958;33;19976;-39
2021/09/21 02:18:39;;;;;;;;;;;15.80;35.80;;;;;;4330741;33;19974;-38
2021/09/21 02:21:05;;;;;;;;;;;15.80;35.90;;;;;;4301228;33;19983;-40
2021/09/21 02:23:32;;;;;;;;;;;15.70;36.00;;;;;;4301320;33;19982;-40
2021/09/21 02:25:58;;;;;;;;;;;15.70;36.10;;;;;;4301608;33;19967;-40
2021/09/21 02:28:24;;;;;;;;;;;15.60;36.20;;;;;;4301540;33;19976;-39
2021/09/21 02:30:50;;;;;;;;;;;15.60;36.30;;;;;;4313562;33;20123;-39
2021/09/21 02:33:16;;;;;;;;;;;15.50;36.30;;;;;;4315762;33;20474;-39
2021/09/21 02:35:42;;;;;;;;;;;15.50;36.40;;;;;;4316140;33;21008;-40
2021/09/21 02:38:08;;;;;;;;;;;15.40;36.30;;;;;;4315862;33;19979;-40
2021/09/21 02:40:35;;;;;;;;;;;15.40;36.50;;;;;;4316033;33;19964;-40
2021/09/21 02:43:01;;;;;;;;;;;15.40;36.60;;;;;;4316201;33;19974;-40
2021/09/21 02:45:27;;;;;;;;;;;15.40;36.50;;;;;;4315943;33;19987;-41
2021/09/21 02:47:53;;;;;;;;;;;15.40;36.60;;;;;;4317917;33;20025;-38
2021/09/21 02:50:20;;;;;;;;;;;15.40;36.60;;;;;;4327957;33;20034;-40
2021/09/21 02:52:46;;;;;;;;;;;15.40;36.50;;;;;;4328416;33;19993;-41
2021/09/21 02:55:12;;;;;;;;;;;15.50;36.50;;;;;;4328974;33;20093;-40
2021/09/21 02:57:38;;;;;;;;;;;15.60;36.50;;;;;;4332457;32;19971;-43
2021/09/21 03:00:07;;;;;;;;;;;15.60;36.30;;;;;;4360288;32;19966;-39
2021/09/21 03:02:36;;;;;;;;;;;15.70;36.20;;;;;;4360056;32;19997;-40
2021/09/21 03:05:06;;;;;;;;;;;15.70;36.20;;;;;;4360667;32;19967;-40
2021/09/21 03:07:42;;;;;;;;;;;15.70;36.20;;;;;;4360111;32;20478;-39
2021/09/21 03:10:25;;;;;;;;;;;15.70;36.40;;;;;;4360004;32;20053;-40
2021/09/21 03:18:03;;;;;;;;;;;15.50;37.40;;;;;;4359729;32;20035;-41
2021/09/21 03:20:29;;;;;;;;;;;15.60;37.60;;;;;;4360010;32;20435;-40
2021/09/21 03:22:55;;;;;;;;;;;15.60;37.70;;;;;;4359964;32;20110;-38
2021/09/21 03:25:22;;;;;;;;;;;15.60;38.60;;;;;;4360252;32;19973;-40
2021/09/21 03:27:48;;;;;;;;;;;15.70;37.90;;;;;;4360037;32;20024;-41
2021/09/21 03:30:14;;;;;;;;;;;15.70;37.90;;;;;;4359903;32;19959;-40
2021/09/21 03:32:41;;;;;;;;;;;15.70;38.00;;;;;;4360128;32;19978;-40
2021/09/21 03:35:09;;;;;;;;;;;15.70;38.10;;;;;;4360066;32;19954;-39
2021/09/21 03:37:35;;;;;;;;;;;15.60;38.50;;;;;;4360143;32;19966;-39
2021/09/21 03:40:03;;;;;;;;;;;15.60;38.50;;;;;;4360051;32;19962;-40
2021/09/21 03:42:29;;;;;;;;;;;15.50;38.60;;;;;;4359698;32;19982;-40
2021/09/21 03:44:55;;;;;;;;;;;15.50;38.60;;;;;;4359650;32;19977;-42
2021/09/21 03:47:21;;;;;;;;;;;15.40;38.80;;;;;;4359622;32;20055;-41
2021/09/21 03:49:47;;;;;;;;;;;15.40;39.30;;;;;;4345197;32;20503;-41
2021/09/21 03:52:13;;;;;;;;;;;15.40;39.30;;;;;;4344592;32;19974;-41
2021/09/21 03:54:39;;;;;;;;;;;15.40;39.60;;;;;;4344680;32;20060;-40
2021/09/21 03:57:06;;;;;;;;;;;15.30;39.40;;;;;;4344618;32;19979;-39
2021/09/21 03:59:32;;;;;;;;;;;15.20;39.50;;;;;;4330610;33;19978;-41
2021/09/21 04:01:58;;;;;;;;;;;15.10;40.00;;;;;;4344991;32;20052;-41
2021/09/21 04:04:24;;;;;;;;;;;15.00;40.20;;;;;;4344598;32;19982;-41
2021/09/21 04:06:51;;;;;;;;;;;14.90;40.40;;;;;;4344640;32;20002;-41
2021/09/21 04:09:17;;;;;;;;;;;14.80;40.80;;;;;;4344588;33;19986;-39
2021/09/21 04:11:43;;;;;;;;;;;14.70;41.10;;;;;;4344304;32;20044;-40
2021/09/21 04:14:09;;;;;;;;;;;14.70;41.20;;;;;;4344627;32;20419;-40
2021/09/21 04:16:35;;;;;;;;;;;14.60;42.00;;;;;;4344101;32;20114;-41
2021/09/21 04:19:02;;;;;;;;;;;14.60;42.10;;;;;;4344172;33;19991;-41
2021/09/21 04:21:28;;;;;;;;;;;14.60;41.90;;;;;;4344453;33;19990;-39
2021/09/21 04:23:54;;;;;;;;;;;14.60;42.40;;;;;;4344671;33;19987;-41
2021/09/21 04:26:20;;;;;;;;;;;14.60;42.60;;;;;;4344480;33;20044;-41
2021/09/21 04:28:46;;;;;;;;;;;14.70;42.50;;;;;;4330336;33;20407;-40
2021/09/21 04:31:13;;;;;;;;;;;14.70;42.30;;;;;;4344028;33;19991;-40
2021/09/21 04:33:41;;;;;;;;;;;14.80;42.20;;;;;;4314273;33;20107;-40
2021/09/21 04:36:08;;;;;;;;;;;14.90;42.20;;;;;;4314434;33;20443;-40
2021/09/21 04:38:35;;;;;;;;;;;14.90;41.80;;;;;;4326804;33;19963;-41
2021/09/21 04:41:01;;;;;;;;;;;14.80;41.70;;;;;;4314535;33;20094;-40
2021/09/21 04:43:27;;;;;;;;;;;14.80;42.40;;;;;;4326671;33;20403;-41
2021/09/21 04:45:54;;;;;;;;;;;14.80;42.10;;;;;;4326595;33;19971;-40
2021/09/21 04:48:20;;;;;;;;;;;14.80;42.30;;;;;;4331884;33;19987;-40
2021/09/21 04:50:46;;;;;;;;;;;14.70;42.10;;;;;;4329096;33;20005;-38
2021/09/21 04:53:12;;;;;;;;;;;14.70;42.00;;;;;;4311475;33;20001;-42
2021/09/21 04:55:39;;;;;;;;;;;14.70;42.20;;;;;;4311848;33;20058;-42
2021/09/21 04:58:05;;;;;;;;;;;14.70;42.00;;;;;;4299662;33;19979;-40
2021/09/21 05:00:31;;;;;;;;;;;14.70;41.90;;;;;;4311801;33;20044;-38
2021/09/21 05:02:57;;;;;;;;;;;14.70;42.00;;;;;;4312038;33;20019;-41
2021/09/21 05:05:23;;;;;;;;;;;14.80;42.40;;;;;;4311992;33;20176;-39
2021/09/21 05:07:49;;;;;;;;;;;14.80;42.40;;;;;;4312075;33;19983;-41
2021/09/21 05:10:19;;;;;;;;;;;14.80;42.20;;;;;;4301728;33;20041;-40
2021/09/21 05:12:45;;;;;;;;;;;14.80;42.20;;;;;;4326228;33;19960;-41
2021/09/21 05:15:11;;;;;;;;;;;14.80;42.50;;;;;;4326001;33;20383;-41
2021/09/21 05:17:38;;;;;;;;;;;14.80;42.50;;;;;;4326676;33;19967;-41
2021/09/21 05:20:05;;;;;;;;;;;14.90;42.60;;;;;;4326731;33;20034;-40
2021/09/21 05:22:31;;;;;;;;;;;14.90;42.60;;;;;;4326762;33;20403;-40
2021/09/21 05:24:58;;;;;;;;;;;14.90;42.30;;;;;;4340445;33;19974;-41
2021/09/21 05:27:24;;;;;;;;;;;15.00;43.20;;;;;;4342165;33;19982;-41
2021/09/21 05:29:50;;;;;;;;;;;15.00;43.20;;;;;;4343513;32;19991;-41
2021/09/21 05:32:17;;;;;;;;;;;15.00;43.40;;;;;;4343367;32;19979;-41
2021/09/21 05:34:43;;;;;;;;;;;15.10;43.10;;;;;;4343755;32;19967;-41
2021/09/21 05:37:09;;;;;;;;;;;15.10;42.70;;;;;;4343429;32;20038;-40
2021/09/21 05:39:35;;;;;;;;;;;15.20;42.90;;;;;;4343403;32;19967;-41
2021/09/21 05:42:02;;;;;;;;;;;15.30;42.70;;;;;;4343745;32;20002;-41
2021/09/21 05:44:28;;;;;;;;;;;15.30;42.50;;;;;;4343323;32;20069;-40
2021/09/21 05:46:54;;;;;;;;;;;15.30;42.40;;;;;;4343476;32;19991;-40
2021/09/21 05:49:20;;;;;;;;;;;15.40;42.30;;;;;;4343021;32;19975;-40
2021/09/21 05:51:46;;;;;;;;;;;15.50;42.50;;;;;;4343188;33;20412;-41
2021/09/21 05:54:13;;;;;;;;;;;15.60;42.30;;;;;;4343455;33;20016;-40
2021/09/21 05:56:39;;;;;;;;;;;15.70;42.00;;;;;;4343297;33;20086;-39
2021/09/21 05:59:05;;;;;;;;;;;15.70;42.30;;;;;;4343226;33;19951;-40
2021/09/21 06:01:32;;;;;;;;;;;15.70;42.50;;;;;;4343184;33;20005;-41
2021/09/21 06:03:58;;;;;;;;;;;15.60;43.10;;;;;;4343056;33;20458;-41
2021/09/21 06:06:24;;;;;;;;;;;15.60;43.10;;;;;;4343020;33;20150;-41
2021/09/21 06:08:51;;;;;;;;;;;15.50;43.30;;;;;;4343067;33;20030;-40
2021/09/21 06:11:20;;;;;;;;;;;15.40;43.70;;;;;;4343091;33;19986;-40
2021/09/21 06:13:47;;;;;;;;;;;15.30;44.10;;;;;;4343070;33;19959;-39
2021/09/21 06:16:18;;;;;;;;;;;15.20;44.60;;;;;;4343114;33;20435;-41
2021/09/21 06:18:45;;;;;;;;;;;15.10;45.10;;;;;;4329777;33;20041;-41
2021/09/21 06:21:12;;;;;;;;;;;14.90;45.80;;;;;;4342919;33;20005;-41
2021/09/21 06:23:38;;;;;;;;;;;14.80;46.40;;;;;;4344228;33;19959;-41
2021/09/21 06:26:04;;;;;;;;;;;14.80;46.90;;;;;;4346133;33;20412;-42
2021/09/21 06:28:30;;;;;;;;;;;14.80;47.30;;;;;;4345633;33;20005;-42
2021/09/21 06:30:57;;;;;;;;;;;14.70;47.80;;;;;;4345753;33;20014;-39
2021/09/21 06:33:24;;;;;;;;;;;14.70;47.80;;;;;;4345825;33;19978;-42
2021/09/21 06:35:51;;;;;;;;;;;14.60;47.60;;;;;;4345772;33;19967;-42
2021/09/21 06:38:17;;;;;;;;;;;14.50;47.60;;;;;;4345652;33;19978;-42
2021/09/21 06:40:43;;;;;;;;;;;14.40;48.40;;;;;;4345674;33;19963;-42
2021/09/21 06:43:10;;;;;;;;;;;14.40;48.70;;;;;;4345513;33;19986;-43
2021/09/21 06:45:36;;;;;;;;;;;14.40;49.60;;;;;;4345885;33;20075;-42
2021/09/21 06:48:02;;;;;;;;;;;14.50;49.10;;;;;;4349254;32;19996;-43
2021/09/21 06:50:28;;;;;;;;;;;14.60;49.30;;;;;;4360553;32;19974;-43
2021/09/21 06:52:55;;;;;;;;;;;14.70;49.10;;;;;;4360403;32;20046;-43
2021/09/21 06:55:21;;;;;;;;;;;14.80;48.90;;;;;;4360242;32;19971;-42
2021/09/21 06:57:51;;;;;;;;;;;14.90;48.20;;;;;;4360106;32;19974;-47
2021/09/21 07:00:18;;;;;;;;;;;15.00;48.40;;;;;;4360448;32;19980;-42
2021/09/21 07:02:47;;;;;;;;;;;15.10;48.10;;;;;;4360395;32;19972;-42
2021/09/21 07:05:13;;;;;;;;;;;15.20;48.00;;;;;;4359915;32;19970;-42
2021/09/21 07:07:48;;;;;;;;;;;15.30;47.90;;;;;;4346069;32;19977;-41
2021/09/21 07:10:14;;;;;;;;;;;15.40;47.90;;;;;;4360401;32;19962;-39
2021/09/21 07:12:41;;;;;;;;;;;15.50;47.50;;;;;;4360475;32;19967;-41
2021/09/21 07:15:08;;;;;;;;;;;15.60;46.60;;;;;;4360405;32;19985;-41
2021/09/21 07:17:34;;;;;;;;;;;15.60;46.60;;;;;;4359992;32;19981;-43
2021/09/21 07:20:01;;;;;;;;;;;15.70;46.40;;;;;;4360403;32;19969;-42
2021/09/21 07:22:29;;;;;;;;;;;15.70;46.30;;;;;;4359611;32;20063;-40
2021/09/21 07:24:55;;;;;;;;;;;15.70;46.60;;;;;;4359763;32;19963;-42
2021/09/21 07:27:21;;;;;;;;;;;15.70;46.80;;;;;;4360371;32;19974;-41
2021/09/21 07:29:47;;;;;;;;;;;15.80;46.10;;;;;;4359456;32;20410;-41
2021/09/21 07:32:14;;;;;;;;;;;15.80;46.80;;;;;;4360095;32;19961;-41
2021/09/21 07:34:40;;;;;;;;;;;15.80;46.50;;;;;;4359093;32;20034;-39
2021/09/21 07:37:08;;;;;;;;;;;15.80;46.10;;;;;;4345690;32;20009;-42
2021/09/21 07:39:35;;;;;;;;;;;15.80;46.30;;;;;;4359742;32;20044;-40
2021/09/21 07:42:01;;;;;;;;;;;15.80;46.40;;;;;;4359902;32;19990;-43
2021/09/21 07:44:27;;;;;;;;;;;15.80;46.00;;;;;;4359985;32;19975;-43
2021/09/21 07:46:53;;;;;;;;;;;15.80;47.00;;;;;;4359364;32;20062;-42
2021/09/21 07:49:20;;;;;;;;;;;15.90;46.70;;;;;;4348186;32;19955;-40
2021/09/21 07:51:47;;;;;;;;;;;15.90;46.10;;;;;;4344451;33;19959;-42
2021/09/21 07:54:13;;;;;;;;;;;15.90;45.60;;;;;;4344295;33;19997;-41
2021/09/21 07:56:39;;;;;;;;;;;16.00;46.00;;;;;;4344762;33;20043;-40
2021/09/21 07:59:06;;;;;;;;;;;16.00;46.30;;;;;;4344535;33;19970;-42
2021/09/21 08:01:32;;;;;;;;;;;16.10;45.40;;;;;;4330903;33;20048;-41
2021/09/21 08:03:58;;;;;;;;;;;16.10;45.40;;;;;;4344362;33;20063;-41
2021/09/21 08:06:25;;;;;;;;;;;16.20;45.10;;;;;;4330565;33;19966;-42
2021/09/21 08:08:51;;;;;;;;;;;16.30;45.20;;;;;;4344424;33;20006;-41
2021/09/21 08:11:17;;;;;;;;;;;16.40;44.70;;;;;;4344631;33;20078;-41
2021/09/21 08:13:43;;;;;;;;;;;16.60;45.00;;;;;;4344131;33;20024;-41
2021/09/21 08:16:10;;;;;;;;;;;16.80;44.60;;;;;;4344549;33;20402;-40
2021/09/21 08:18:36;;;;;;;;;;;16.90;44.10;;;;;;4344071;33;20037;-41
2021/09/21 08:21:02;;;;;;;;;;;17.10;43.10;;;;;;4344463;33;20458;-42
2021/09/21 08:23:28;;;;;;;;;;;17.20;43.30;;;;;;4344432;33;20374;-40
2021/09/21 08:25:55;;;;;;;;;;;17.30;42.90;;;;;;4344698;33;19978;-41
2021/09/21 08:28:21;;;;;;;;;;;17.50;42.60;;;;;;4344245;33;19982;-41
2021/09/21 08:30:48;;;;;;;;;;;17.70;42.60;;;;;;4343976;33;20005;-40
2021/09/21 08:33:14;;;;;;;;;;;17.80;42.30;;;;;;4344217;33;19965;-40
2021/09/21 08:35:40;;;;;;;;;;;18.00;42.20;;;;;;4344139;33;19967;-41
2021/09/21 08:38:07;;;;;;;;;;;18.10;41.70;;;;;;4343822;33;20006;-41
2021/09/21 08:40:33;;;;;;;;;;;18.20;41.40;;;;;;4343723;33;20415;-40
2021/09/21 08:42:59;;;;;;;;;;;18.40;41.20;;;;;;4343750;33;20034;-40
2021/09/21 08:45:26;;;;;;;;;;;18.50;40.60;;;;;;4343817;33;20021;-40
2021/09/21 08:47:52;;;;;;;;;;;18.70;40.70;;;;;;4345520;32;19976;-41
2021/09/21 08:50:19;;;;;;;;;;;18.80;40.50;;;;;;4344506;32;20044;-39
2021/09/21 08:52:45;;;;;;;;;;;18.90;40.00;;;;;;4358505;32;19981;-40
2021/09/21 08:55:12;;;;;;;;;;;19.00;39.70;;;;;;4345238;32;19989;-41
2021/09/21 08:57:39;;;;;;;;;;;19.10;39.30;;;;;;4358700;32;20057;-40
2021/09/21 09:00:06;;;;;;;;;;;19.20;38.90;;;;;;4358682;32;19993;-41
2021/09/21 09:02:33;;;;;;;;;;;19.30;38.50;;;;;;4358765;32;19991;-41
2021/09/21 09:05:07;;;;;;;;;;;19.30;38.30;;;;;;4358769;32;20054;-41
2021/09/21 09:07:47;;;;;;;;;;;19.40;37.90;;;;;;4358251;32;19996;-40
2021/09/21 09:10:14;;;;;;;;;;;19.40;38.00;;;;;;4358816;32;20003;-40
2021/09/21 09:12:40;;;;;;;;;;;19.50;38.50;;;;;;4358409;32;19977;-40
2021/09/21 09:15:26;;;;;;;;;;;19.50;38.40;;;;;;4325869;33;19990;-40
2021/09/21 09:17:56;;;;;;;;;;;19.60;37.90;;;;;;4325639;33;19975;-40
2021/09/21 09:20:39;;;;;;;;;;;19.60;37.70;;;;;;4326403;33;19970;-40
2021/09/21 09:23:07;;;;;;;;;;;19.50;37.50;;;;;;4326045;33;20077;-40
2021/09/21 09:25:46;;;;;;;;;;;19.50;38.00;;;;;;4326509;33;19987;-39
2021/09/21 09:28:25;;;;;;;;;;;19.40;38.50;;;;;;4326461;33;20066;-39
2021/09/21 09:30:53;;;;;;;;;;;19.40;38.50;;;;;;4326408;33;20467;-39
2021/09/21 09:33:19;;;;;;;;;;;19.40;38.40;;;;;;4326200;33;19994;-37
2021/09/21 09:35:46;;;;;;;;;;;19.40;38.70;;;;;;4326573;33;20440;-39
2021/09/21 09:38:17;;;;;;;;;;;19.50;38.50;;;;;;4325558;33;20001;-39
2021/09/21 09:40:48;;;;;;;;;;;19.50;37.70;;;;;;4314174;33;19955;-40
2021/09/21 09:43:16;;;;;;;;;;;19.50;37.30;;;;;;4325774;33;19971;-41
2021/09/21 09:45:44;;;;;;;;;;;19.40;37.20;;;;;;4326034;33;19978;-41
2021/09/21 09:48:18;;;;;;;;;;;19.40;36.90;;;;;;4325915;33;19990;-40
2021/09/21 09:50:45;;;;;;;;;;;19.40;37.20;;;;;;4325960;33;19976;-40
2021/09/21 09:53:14;;;;;;;;;;;19.50;36.90;;;;;;4348391;32;19986;-41
2021/09/21 09:55:41;;;;;;;;;;;19.60;36.90;;;;;;4355025;32;20438;-41
2021/09/21 09:58:08;;;;;;;;;;;19.70;36.70;;;;;;4356259;32;20083;-39
2021/09/21 10:00:35;;;;;;;;;;;19.80;36.00;;;;;;4358598;32;20393;-40
2021/09/21 10:03:01;;;;;;;;;;;19.90;35.80;;;;;;4358421;32;19973;-40
2021/09/21 10:05:29;;;;;;;;;;;20.00;35.50;;;;;;4358537;32;19978;-40
2021/09/21 10:07:56;;;;;;;;;;;20.10;35.40;;;;;;4358726;32;19977;-38
2021/09/21 10:10:23;;;;;;;;;;;20.20;34.80;;;;;;4358428;32;20001;-40
2021/09/21 10:12:49;;;;;;;;;;;20.30;34.50;;;;;;4357788;32;20438;-39
2021/09/21 10:15:16;;;;;;;;;;;20.30;34.60;;;;;;4341823;33;19980;-41
2021/09/21 10:17:53;;;;;;;;;;;20.40;34.10;;;;;;4345992;33;20539;-41
2021/09/21 10:20:32;;;;;;;;;;;20.30;34.10;;;;;;4345595;33;19997;-39
2021/09/21 10:22:59;;;;;;;;;;;20.30;33.70;;;;;;4345850;33;19986;-40
2021/09/21 10:25:33;;;;;;;;;;;20.30;34.10;;;;;;4345969;33;19990;-40
2021/09/21 10:28:03;;;;;;;;;;;20.30;33.90;;;;;;4345705;33;20000;-39
2021/09/21 10:30:30;;;;;;;;;;;20.40;33.80;;;;;;4331601;33;19987;-41
2021/09/21 10:32:57;;;;;;;;;;;20.40;33.50;;;;;;4345300;33;19978;-41
2021/09/21 10:35:31;;;;;;;;;;;20.50;33.60;;;;;;4345626;33;19963;-40
2021/09/21 10:37:59;;;;;;;;;;;20.50;33.90;;;;;;4345429;33;20434;-40
2021/09/21 10:41:01;;;;;;;;;;;20.60;33.60;;;;;;4345504;33;20069;-40
2021/09/21 10:43:29;;;;;;;;;;;20.70;33.70;;;;;;4270303;33;20446;-41
2021/09/21 10:46:06;;;;;;;;;;;20.70;33.40;;;;;;4270581;33;19978;-40
2021/09/21 10:48:37;;;;;;;;;;;20.80;33.20;;;;;;4276897;33;19971;-40
2021/09/21 10:51:03;;;;;;;;;;;20.90;32.80;;;;;;4284478;33;20425;-40
2021/09/21 10:53:30;;;;;;;;;;;20.90;32.60;;;;;;4272609;33;20432;-41
2021/09/21 10:56:05;;;;;;;;;;;21.00;32.70;;;;;;4284693;33;19995;-41
2021/09/21 10:58:31;;;;;;;;;;;21.00;32.60;;;;;;4284542;33;20047;-40
2021/09/21 11:00:58;;;;;;;;;;;21.10;32.40;;;;;;4284424;33;20094;-40
2021/09/21 11:03:25;;;;;;;;;;;21.20;32.10;;;;;;4284331;33;19979;-41
2021/09/21 11:05:54;;;;;;;;;;;21.30;31.90;;;;;;4284656;33;19969;-39
2021/09/21 11:08:25;;;;;;;;;;;21.40;31.60;;;;;;4272396;33;20047;-41
2021/09/21 11:10:54;;;;;;;;;;;21.40;31.20;;;;;;4272713;33;19991;-40
2021/09/21 11:13:23;;;;;;;;;;;21.50;30.90;;;;;;4284420;33;20424;-39
2021/09/21 11:15:49;;;;;;;;;;;21.50;31.20;;;;;;4284514;33;19978;-41
2021/09/21 11:18:17;;;;;;;;;;;21.60;31.30;;;;;;4271746;33;20136;-40
2021/09/21 11:20:47;;;;;;;;;;;21.60;31.10;;;;;;4352902;32;20437;-40
2021/09/21 11:23:13;;;;;;;;;;;21.70;31.10;;;;;;4360041;32;19994;-39
2021/09/21 11:25:40;;;;;;;;;;;21.70;30.70;;;;;;4360134;32;19994;-40
2021/09/21 11:28:06;;;;;;;;;;;21.70;30.60;;;;;;4360119;32;20063;-38
2021/09/21 11:30:32;;;;;;;;;;;21.60;30.60;;;;;;4359749;32;20043;-39
2021/09/21 11:32:58;;;;;;;;;;;21.60;30.80;;;;;;4359897;32;19996;-41
2021/09/21 11:35:24;;;;;;;;;;;21.50;30.40;;;;;;4345658;32;20409;-37
2021/09/21 11:37:51;;;;;;;;;;;21.40;30.50;;;;;;4346202;32;19970;-40
2021/09/21 11:40:31;;;;;;;;;;;21.40;30.60;;;;;;4359770;32;19962;-39
2021/09/21 11:42:58;;;;;;;;;;;21.40;30.50;;;;;;4359689;32;19974;-39
2021/09/21 11:45:24;;;;;;;;;;;21.40;30.80;;;;;;4359498;32;19966;-38
2021/09/21 11:47:51;;;;;;;;;;;21.40;30.80;;;;;;4357666;32;20033;-40
2021/09/21 11:50:18;;;;;;;;;;;21.40;30.90;;;;;;4344860;32;20050;-40
2021/09/21 11:52:49;;;;;;;;;;;21.40;30.90;;;;;;4344522;32;20450;-40
2021/09/21 11:55:17;;;;;;;;;;;21.30;30.60;;;;;;4344707;32;19978;-39
2021/09/21 11:57:44;;;;;;;;;;;21.30;30.90;;;;;;4344426;32;20030;-40
2021/09/21 12:00:35;;;;;;;;;;;21.30;31.00;;;;;;4344306;32;20046;-41
2021/09/21 12:03:07;;;;;;;;;;;21.30;31.30;;;;;;4344299;32;19975;-41
2021/09/21 12:05:34;;;;;;;;;;;21.30;31.30;;;;;;4342804;33;19969;-41
2021/09/21 12:08:31;;;;;;;;;;;21.30;31.30;;;;;;4344548;32;19969;-40
2021/09/21 12:11:06;;;;;;;;;;;21.20;31.40;;;;;;4343468;33;19970;-40
2021/09/21 12:13:32;;;;;;;;;;;21.10;31.60;;;;;;4344088;32;19982;-40
2021/09/21 12:16:02;;;;;;;;;;;21.00;31.70;;;;;;4344076;32;20093;-40
2021/09/21 12:18:29;;;;;;;;;;;20.90;31.80;;;;;;4355644;32;20064;-39
2021/09/21 12:20:58;;;;;;;;;;;20.90;32.00;;;;;;4345331;32;19977;-38
2021/09/21 12:23:26;;;;;;;;;;;20.80;32.00;;;;;;4359407;32;19969;-41
2021/09/21 12:25:53;;;;;;;;;;;20.80;32.20;;;;;;4359042;32;20384;-40
2021/09/21 12:28:25;;;;;;;;;;;20.80;32.40;;;;;;4359036;32;20381;-41
2021/09/21 12:30:51;;;;;;;;;;;20.80;32.50;;;;;;4359021;32;19963;-41
2021/09/21 12:33:17;;;;;;;;;;;20.80;32.50;;;;;;4345036;32;20453;-41
2021/09/21 12:35:46;;;;;;;;;;;20.80;32.50;;;;;;4358750;32;19974;-41
2021/09/21 12:38:12;;;;;;;;;;;20.80;32.60;;;;;;4359125;32;19974;-40
2021/09/21 12:40:57;;;;;;;;;;;20.80;32.40;;;;;;4358741;32;19962;-40
2021/09/21 12:43:28;;;;;;;;;;;20.80;33.20;;;;;;4358836;32;19976;-38
2021/09/21 12:45:57;;;;;;;;;;;20.70;33.40;;;;;;4359316;32;19990;-41
2021/09/21 12:48:24;;;;;;;;;;;20.60;34.20;;;;;;4353299;32;19974;-41
2021/09/21 12:50:55;;;;;;;;;;;20.50;34.10;;;;;;4343695;33;19971;-41
2021/09/21 12:53:22;;;;;;;;;;;20.40;35.00;;;;;;4343128;33;19971;-40
2021/09/21 12:55:59;;;;;;;;;;;20.20;35.60;;;;;;4326255;33;20013;-40
2021/09/21 12:58:27;;;;;;;;;;;19.90;36.00;;;;;;4326509;33;20407;-42
2021/09/21 13:00:53;;;;;;;;;;;19.60;37.50;;;;;;4314086;33;20183;-41
2021/09/21 13:03:20;;;;;;;;;;;19.30;37.90;;;;;;4326249;33;19987;-40
2021/09/21 13:05:47;;;;;;;;;;;19.10;38.00;;;;;;4296769;33;19988;-40
2021/09/21 13:08:13;;;;;;;;;;;18.90;38.40;;;;;;4296731;33;20401;-40
2021/09/21 13:10:39;;;;;;;;;;;18.70;38.60;;;;;;4296953;33;20037;-41
2021/09/21 13:13:06;;;;;;;;;;;18.60;39.10;;;;;;4297076;33;19972;-40
2021/09/21 13:15:34;;;;;;;;;;;18.50;38.80;;;;;;4296889;33;19967;-40
2021/09/21 13:18:00;;;;;;;;;;;18.50;38.80;;;;;;4281936;33;20067;-39
2021/09/21 13:20:28;;;;;;;;;;;18.50;38.40;;;;;;4282360;33;20063;-37
2021/09/21 13:22:54;;;;;;;;;;;18.40;38.50;;;;;;4283052;33;20410;-41
2021/09/21 13:25:21;;;;;;;;;;;18.40;38.60;;;;;;4282408;33;20441;-41
2021/09/21 13:27:47;;;;;;;;;;;18.40;38.40;;;;;;4295880;33;20077;-40
2021/09/21 13:30:14;;;;;;;;;;;18.30;38.20;;;;;;4296911;33;20202;-41
2021/09/21 13:32:40;;;;;;;;;;;18.30;38.10;;;;;;4296573;33;19964;-41
2021/09/21 13:35:07;;;;;;;;;;;18.20;38.10;;;;;;4296884;33;19968;-41
2021/09/21 13:37:34;;;;;;;;;;;18.10;38.20;;;;;;4296927;33;19980;-41
2021/09/21 13:40:00;;;;;;;;;;;18.10;38.30;;;;;;4297134;33;19975;-41
2021/09/21 13:42:26;;;;;;;;;;;18.10;38.00;;;;;;4290596;33;19990;-41
2021/09/21 13:44:52;;;;;;;;;;;18.10;37.80;;;;;;4328550;33;19979;-42
2021/09/21 13:47:18;;;;;;;;;;;18.00;37.70;;;;;;4314998;33;20015;-41
2021/09/21 13:49:44;;;;;;;;;;;18.00;37.70;;;;;;4328581;33;19963;-41
2021/09/21 13:52:10;;;;;;;;;;;18.00;37.60;;;;;;4343222;33;19963;-43
2021/09/21 13:54:37;;;;;;;;;;;17.90;37.50;;;;;;4310841;33;20022;-41
2021/09/21 13:57:04;;;;;;;;;;;17.90;37.60;;;;;;4311218;33;19967;-40
2021/09/21 13:59:30;;;;;;;;;;;17.90;37.50;;;;;;4311040;33;19982;-40
2021/09/21 14:02:03;;;;;;;;;;;17.80;37.30;;;;;;4311522;33;19972;-42
2021/09/21 14:04:33;;;;;;;;;;;17.80;37.30;;;;;;4311365;33;19991;-41
2021/09/21 14:06:59;;;;;;;;;;;17.80;37.20;;;;;;4311892;33;19967;-41
2021/09/21 14:09:26;;;;;;;;;;;17.80;37.20;;;;;;4311461;33;19987;-42
2021/09/21 14:11:53;;;;;;;;;;;17.90;37.20;;;;;;4311292;33;20054;-41
2021/09/21 14:14:20;;;;;;;;;;;17.90;37.20;;;;;;4311260;33;20098;-40
2021/09/21 14:16:46;;;;;;;;;;;17.90;37.10;;;;;;4313266;33;20391;-40
2021/09/21 14:19:12;;;;;;;;;;;17.90;36.90;;;;;;4340563;33;19970;-41
2021/09/21 14:21:39;;;;;;;;;;;17.90;37.00;;;;;;4327922;33;20131;-40
2021/09/21 14:24:05;;;;;;;;;;;17.90;36.90;;;;;;4340448;33;20056;-40
2021/09/21 14:26:31;;;;;;;;;;;17.90;36.80;;;;;;4327610;33;19978;-40